Time;durP1;ratioP1;P1;durP2;ratioP2;P2;SDS_P1;SDS_P2;PMS_P1;PMS_P2;Temp;Humidity;BMP_temperature;BMP_pressure;BME280_temperature;BME280_humidity;BME280_pressure;Samples;Min_cycle;Max_cycle;Signal;HPM_P1;HPM_P2
2023/09/26 00:02:25;;;;;;;6.30;1.90;;;;;;;22.53;100.00;101818.03;5022371;28;20132;-53
2023/09/26 00:04:52;;;;;;;5.95;1.80;;;;;;;22.50;100.00;101827.47;5019833;28;20496;-54
2023/09/26 00:07:18;;;;;;;6.20;1.90;;;;;;;22.49;100.00;101817.41;5029471;28;20056;-49
2023/09/26 00:09:45;;;;;;;3.55;1.42;;;;;;;22.46;100.00;101824.00;5019261;28;20652;-50
2023/09/26 00:12:12;;;;;;;5.13;1.95;;;;;;;22.42;100.00;101820.56;5015017;28;20056;-53
2023/09/26 00:14:38;;;;;;;4.60;1.52;;;;;;;22.45;100.00;101823.25;5027276;28;20514;-51
2023/09/26 00:17:05;;;;;;;4.57;2.13;;;;;;;22.46;100.00;101821.97;5022764;28;20573;-50
2023/09/26 00:19:32;;;;;;;4.90;2.50;;;;;;;22.43;100.00;101817.25;5022070;28;20760;-50
2023/09/26 00:21:58;;;;;;;6.07;2.13;;;;;;;22.43;100.00;101817.25;5021300;28;20152;-52
2023/09/26 00:24:25;;;;;;;3.30;1.73;;;;;;;22.38;100.00;101817.91;5026966;28;20055;-52
2023/09/26 00:26:51;;;;;;;2.97;1.75;;;;;;;22.40;100.00;101818.19;5016054;28;22383;-51
2023/09/26 00:29:18;;;;;;;4.10;1.92;;;;;;;22.43;100.00;101817.25;5014628;28;20092;-51
2023/09/26 00:31:45;;;;;;;3.55;1.92;;;;;;;22.44;100.00;101823.72;5027349;28;20500;-53
2023/09/26 00:34:12;;;;;;;4.43;2.05;;;;;;;22.46;100.00;101819.13;5027004;28;20060;-51
2023/09/26 00:36:38;;;;;;;5.90;1.80;;;;;;;22.41;100.00;101824.66;5027916;28;20143;-50
2023/09/26 00:39:05;;;;;;;5.07;1.90;;;;;;;22.43;100.00;101813.63;5023737;28;20053;-50
2023/09/26 00:41:33;;;;;;;4.55;1.83;;;;;;;22.41;100.00;101819.00;5020331;28;20165;-50
2023/09/26 00:44:00;;;;;;;4.82;2.00;;;;;;;22.41;100.00;101819.75;5027581;28;20050;-49
2023/09/26 00:46:27;;;;;;;3.45;1.73;;;;;;;22.43;100.00;101819.28;5022357;28;20132;-50
2023/09/26 00:48:55;;;;;;;4.35;1.92;;;;;;;22.43;100.00;101820.09;5024080;28;20073;-51
2023/09/26 00:51:22;;;;;;;2.78;1.63;;;;;;;22.54;100.00;101826.03;5025922;28;20053;-54
2023/09/26 00:53:49;;;;;;;3.90;1.80;;;;;;;22.56;100.00;101826.38;5011417;28;20829;-51
2023/09/26 00:56:17;;;;;;;3.88;1.70;;;;;;;22.50;100.00;101822.59;5022174;28;20053;-54
2023/09/26 00:58:44;;;;;;;3.45;1.88;;;;;;;22.43;100.00;101828.59;5025767;28;20068;-53
2023/09/26 01:01:10;;;;;;;3.40;1.80;;;;;;;22.43;100.00;101825.75;5015056;28;20042;-51
2023/09/26 01:03:38;;;;;;;2.92;1.65;;;;;;;22.45;100.00;101820.41;5026137;28;20057;-50
2023/09/26 01:06:05;;;;;;;4.38;1.90;;;;;;;22.46;100.00;101824.00;5019582;28;20151;-51
2023/09/26 01:08:32;;;;;;;4.18;2.00;;;;;;;22.45;100.00;101825.28;5022888;28;20603;-54
2023/09/26 01:10:58;;;;;;;4.00;1.85;;;;;;;22.43;100.00;101827.78;5018438;28;20049;-50
2023/09/26 01:13:25;;;;;;;2.72;1.60;;;;;;;22.43;100.00;101810.78;5023768;28;20083;-51
2023/09/26 01:15:52;;;;;;;4.55;2.20;;;;;;;22.42;100.00;101809.22;5026571;28;20093;-52
2023/09/26 01:18:23;;;;;;;3.97;1.80;;;;;;;22.43;100.00;101805.91;5013873;28;20049;-50
2023/09/26 01:20:51;;;;;;;2.80;1.67;;;;;;;22.44;100.00;101801.03;5020784;28;20053;-49
2023/09/26 01:23:21;;;;;;;5.05;1.92;;;;;;;22.44;100.00;101798.22;5027722;28;20511;-49
2023/09/26 01:25:48;;;;;;;4.05;2.15;;;;;;;22.45;100.00;101797.75;5022353;28;20106;-51
2023/09/26 01:28:19;;;;;;;4.47;1.88;;;;;;;22.39;100.00;101799.63;5029766;28;20081;-53
2023/09/26 01:30:46;;;;;;;3.78;1.85;;;;;;;22.40;100.00;101789.84;5024148;28;20188;-52
2023/09/26 01:33:16;;;;;;;3.55;1.98;;;;;;;22.38;100.00;101783.09;5033180;28;20054;-51
2023/09/26 01:35:43;;;;;;;3.13;1.67;;;;;;;22.41;100.00;101782.91;5032403;28;20057;-49
2023/09/26 01:38:10;;;;;;;6.13;1.92;;;;;;;22.41;100.00;101780.09;5024190;28;20574;-51
2023/09/26 01:40:37;;;;;;;7.07;1.80;;;;;;;22.41;100.00;101779.31;5032048;28;20123;-51
2023/09/26 01:43:04;;;;;;;4.70;2.20;;;;;;;22.41;100.00;101774.41;5027083;28;20080;-50
2023/09/26 01:45:30;;;;;;;5.50;2.15;;;;;;;22.44;100.00;101775.53;5022008;28;20080;-50
2023/09/26 01:47:57;;;;;;;3.65;1.85;;;;;;;22.40;100.00;101774.91;5030504;28;20404;-52
2023/09/26 01:50:24;;;;;;;5.15;2.20;;;;;;;22.43;100.00;101776.78;5020146;28;20085;-53
2023/09/26 01:52:51;;;;;;;5.05;1.98;;;;;;;22.42;100.00;101773.19;5017252;28;20107;-50
2023/09/26 01:55:22;;;;;;;3.88;1.90;;;;;;;22.43;100.00;101777.56;5015027;28;20520;-49
2023/09/26 01:57:49;;;;;;;3.83;1.95;;;;;;;22.44;100.00;101776.31;5018315;28;20046;-50
2023/09/26 02:00:17;;;;;;;3.40;1.83;;;;;;;22.45;100.00;101774.28;5018633;28;20463;-50
2023/09/26 02:02:45;;;;;;;3.70;1.90;;;;;;;22.48;100.00;101768.44;5026783;28;20883;-49
2023/09/26 02:05:15;;;;;;;3.42;1.90;;;;;;;22.50;100.00;101771.59;5022002;28;20053;-50
2023/09/26 02:07:42;;;;;;;3.58;1.98;;;;;;;22.49;100.00;101772.06;5039414;28;20519;-52
2023/09/26 02:10:09;;;;;;;3.10;1.70;;;;;;;22.55;100.00;101775.84;5036790;28;20073;-48
2023/09/26 02:12:38;;;;;;;5.75;1.80;;;;;;;22.52;100.00;101773.94;5029413;28;20068;-49
2023/09/26 02:15:08;;;;;;;3.28;1.77;;;;;;;22.52;100.00;101768.28;5031669;28;20049;-49
2023/09/26 02:17:38;;;;;;;5.40;1.90;;;;;;;22.52;100.00;101765.44;5024142;28;20096;-51
2023/09/26 02:20:12;;;;;;;5.22;2.10;;;;;;;22.51;100.00;101770.31;5031744;28;20053;-50
2023/09/26 02:22:47;;;;;;;5.47;2.03;;;;;;;22.51;100.00;101766.72;5032628;28;20053;-51
2023/09/26 02:25:15;;;;;;;6.07;2.10;;;;;;;22.52;100.00;101762.59;5029220;28;20227;-51
2023/09/26 02:27:43;;;;;;;2.83;1.77;;;;;;;22.49;100.00;101760.72;5026479;28;20054;-51
2023/09/26 02:30:11;;;;;;;4.57;2.60;;;;;;;22.49;100.00;101760.72;5031780;28;20072;-49
2023/09/26 02:32:38;;;;;;;3.38;1.92;;;;;;;22.47;100.00;101758.38;5027792;28;20095;-49
2023/09/26 02:35:10;;;;;;;4.05;1.92;;;;;;;22.49;100.00;101752.22;5022214;28;20056;-48
2023/09/26 02:37:38;;;;;;;4.00;1.92;;;;;;;22.47;100.00;101755.53;5031090;28;20146;-50
2023/09/26 02:40:09;;;;;;;3.22;1.95;;;;;;;22.48;100.00;101759.16;5027580;28;20053;-50
2023/09/26 02:42:37;;;;;;;4.25;1.73;;;;;;;22.46;100.00;101758.84;5031374;28;20049;-51
2023/09/26 02:45:05;;;;;;;5.53;2.15;;;;;;;22.47;100.00;101760.44;5028427;28;20095;-50
2023/09/26 02:47:31;;;;;;;3.70;1.63;;;;;;;22.43;100.00;101752.09;5024520;28;20647;-49
2023/09/26 02:49:58;;;;;;;5.53;1.80;;;;;;;22.45;100.00;101751.59;5024111;28;20478;-52
2023/09/26 02:52:25;;;;;;;3.67;2.10;;;;;;;22.44;100.00;101756.47;5020854;28;20132;-52
2023/09/26 02:54:52;;;;;;;4.50;2.00;;;;;;;22.44;100.00;101750.03;5023059;28;20525;-49
2023/09/26 02:57:21;;;;;;;5.32;2.05;;;;;;;22.43;100.00;101746.41;5031176;28;20107;-49
2023/09/26 02:59:48;;;;;;;3.80;1.70;;;;;;;22.44;100.00;101747.22;5029724;28;20132;-49
2023/09/26 03:02:15;;;;;;;4.20;1.90;;;;;;;22.45;100.00;101746.72;5022722;28;20077;-50
2023/09/26 03:04:42;;;;;;;4.75;1.85;;;;;;;22.44;100.00;101744.38;5029449;28;20060;-49
2023/09/26 03:07:09;;;;;;;3.40;2.00;;;;;;;22.43;100.00;101746.41;5025928;28;20803;-49
2023/09/26 03:09:36;;;;;;;4.68;1.83;;;;;;;22.43;100.00;101746.41;5017567;28;20042;-49
2023/09/26 03:12:05;;;;;;;4.18;1.88;;;;;;;22.43;100.00;101742.78;5029419;28;20677;-49
2023/09/26 03:14:31;;;;;;;3.63;1.98;;;;;;;22.42;100.00;101744.06;5027227;28;20057;-52
2023/09/26 03:16:58;;;;;;;4.00;2.00;;;;;;;22.41;100.00;101739.66;5023053;28;20515;-49
2023/09/26 03:19:25;;;;;;;4.00;1.90;;;;;;;22.39;100.00;101742.16;5019881;28;20514;-49
2023/09/26 03:21:52;;;;;;;4.57;2.13;;;;;;;22.41;100.00;101736.81;5030893;28;20049;-49
2023/09/26 03:24:19;;;;;;;6.22;2.38;;;;;;;22.41;100.00;101742.50;5030637;28;20045;-49
2023/09/26 03:26:45;;;;;;;3.95;2.00;;;;;;;22.42;100.00;101744.84;5021895;28;20045;-50
2023/09/26 03:29:12;;;;;;;3.83;1.92;;;;;;;22.40;100.00;101749.41;5029653;28;20060;-50
2023/09/26 03:31:41;;;;;;;3.05;1.63;;;;;;;22.38;100.00;101743.44;5026228;28;20482;-50
2023/09/26 03:34:11;;;;;;;6.20;2.00;;;;;;;22.38;100.00;101746.28;5011482;28;20054;-49
2023/09/26 03:36:37;;;;;;;2.92;1.67;;;;;;;22.39;100.00;101742.16;5021318;28;20516;-50
2023/09/26 03:39:04;;;;;;;3.35;1.70;;;;;;;22.35;100.00;101741.56;5024917;28;20519;-50
2023/09/26 03:41:32;;;;;;;4.85;2.00;;;;;;;22.37;100.00;101741.88;5030143;28;20126;-49
2023/09/26 03:43:58;;;;;;;5.25;2.05;;;;;;;22.37;100.00;101744.72;5029058;28;20054;-49
2023/09/26 03:46:25;;;;;;;3.25;1.90;;;;;;;22.37;100.00;101739.81;5029842;28;20100;-52
2023/09/26 03:48:52;;;;;;;3.97;1.80;;;;;;;22.36;100.00;101735.41;5017413;28;20050;-49
2023/09/26 03:51:19;;;;;;;3.92;1.80;;;;;;;22.34;100.00;101728.66;5025766;28;20474;-49
2023/09/26 03:53:47;;;;;;;4.85;2.58;;;;;;;22.34;100.00;101729.41;5038102;28;20679;-48
2023/09/26 03:56:14;;;;;;;4.97;1.95;;;;;;;22.35;100.00;101735.88;5016627;28;20046;-49
2023/09/26 03:58:40;;;;;;;7.05;2.00;;;;;;;22.36;100.00;101737.44;5020509;28;20045;-50
2023/09/26 04:01:15;;;;;;;3.75;1.90;;;;;;;22.34;100.00;101729.41;5028435;28;20045;-49
2023/09/26 04:03:43;;;;;;;4.60;1.88;;;;;;;22.35;100.00;101730.22;5025549;28;20103;-48
2023/09/26 04:06:10;;;;;;;4.65;1.85;;;;;;;22.35;100.00;101724.56;5025188;28;20075;-48
2023/09/26 04:08:37;;;;;;;3.22;1.70;;;;;;;22.35;100.00;101727.38;5029416;28;20654;-50
2023/09/26 04:11:03;;;;;;;5.40;2.42;;;;;;;22.36;100.00;101726.13;5027029;28;20057;-48
2023/09/26 04:13:30;;;;;;;4.30;1.85;;;;;;;22.36;100.00;101717.63;5029495;28;20053;-49
2023/09/26 04:15:57;;;;;;;3.10;1.90;;;;;;;22.35;100.00;101718.88;5024179;28;20046;-51
2023/09/26 04:18:25;;;;;;;4.07;1.73;;;;;;;22.37;100.00;101727.72;5021497;28;20042;-49
2023/09/26 04:20:52;;;;;;;4.25;1.90;;;;;;;22.34;100.00;101728.66;5024021;28;20049;-49
2023/09/26 04:23:19;;;;;;;3.92;1.65;;;;;;;22.33;100.00;101730.69;5029386;28;20057;-49
2023/09/26 04:25:45;;;;;;;5.80;2.10;;;;;;;22.35;100.00;101721.72;5019925;28;20057;-50
2023/09/26 04:28:12;;;;;;;4.30;1.92;;;;;;;22.33;100.00;101716.53;5029059;28;20605;-49
2023/09/26 04:30:39;;;;;;;7.90;1.88;;;;;;;22.31;100.00;101721.09;5018816;28;20136;-49
2023/09/26 04:33:08;;;;;;;5.10;1.85;;;;;;;22.32;100.00;101720.63;5023213;28;20058;-49
2023/09/26 04:35:35;;;;;;;3.45;1.63;;;;;;;22.30;100.00;101725.19;5026230;28;20053;-49
2023/09/26 04:38:03;;;;;;;4.57;2.10;;;;;;;22.31;100.00;101719.03;5028239;28;20054;-49
2023/09/26 04:40:30;;;;;;;4.60;2.10;;;;;;;22.32;100.00;101719.84;5021289;28;20055;-49
2023/09/26 04:43:01;;;;;;;3.38;2.00;;;;;;;22.29;100.00;101715.88;5029036;28;20053;-49
2023/09/26 04:45:31;;;;;;;3.40;1.90;;;;;;;22.29;100.00;101715.09;5021553;28;20049;-51
2023/09/26 04:47:59;;;;;;;3.25;1.80;;;;;;;22.29;100.00;101713.03;5016841;28;20099;-52
2023/09/26 04:50:27;;;;;;;6.32;2.30;;;;;;;22.29;100.00;101712.25;5017877;28;20065;-49
2023/09/26 04:52:55;;;;;;;4.00;2.10;;;;;;;22.26;100.00;101708.31;5028998;28;20132;-50
2023/09/26 04:55:22;;;;;;;4.45;1.95;;;;;;;22.28;100.00;101710.69;5028535;28;20060;-49
2023/09/26 04:57:49;;;;;;;5.18;2.00;;;;;;;22.28;100.00;101714.31;5028968;28;20119;-48
2023/09/26 05:00:19;;;;;;;3.13;1.73;;;;;;;22.29;100.00;101715.09;5020167;28;20050;-49
2023/09/26 05:02:50;;;;;;;5.32;2.50;;;;;;;22.29;100.00;101703.75;5013601;28;20553;-49
2023/09/26 05:05:19;;;;;;;4.53;2.00;;;;;;;22.30;100.00;101711.81;5023951;28;20060;-49
2023/09/26 05:07:45;;;;;;;4.32;2.05;;;;;;;22.27;100.00;101717.63;5024942;28;20107;-49
2023/09/26 05:10:13;;;;;;;3.83;1.77;;;;;;;22.29;100.00;101712.25;5028786;28;20059;-49
2023/09/26 05:12:40;;;;;;;5.07;2.08;;;;;;;22.27;100.00;101703.47;5028836;28;20049;-49
2023/09/26 05:15:12;;;;;;;3.72;1.80;;;;;;;22.29;100.00;101709.41;5026647;28;20135;-49
2023/09/26 05:17:53;;;;;;;6.35;2.30;;;;;;;22.26;100.00;101704.69;5026207;28;20050;-49
2023/09/26 05:20:20;;;;;;;3.55;1.90;;;;;;;22.28;100.00;101705.81;5025006;28;20624;-48
2023/09/26 05:22:48;;;;;;;3.28;1.90;;;;;;;22.26;100.00;101697.00;5027401;28;20144;-49
2023/09/26 05:25:14;;;;;;;3.00;1.85;;;;;;;22.27;100.00;101700.63;5026696;28;20152;-51
2023/09/26 05:27:43;;;;;;;6.18;2.58;;;;;;;22.25;100.00;101703.94;5028425;28;20049;-49
2023/09/26 05:30:12;;;;;;;4.80;1.83;;;;;;;22.26;100.00;101704.69;5028679;28;20052;-49
2023/09/26 05:32:41;;;;;;;3.72;1.77;;;;;;;22.25;100.00;101701.09;5017625;28;20105;-49
2023/09/26 05:35:08;;;;;;;5.97;2.00;;;;;;;22.24;100.00;101708.00;5022292;28;20053;-49
2023/09/26 05:37:36;;;;;;;3.38;2.10;;;;;;;22.26;100.00;101710.38;5025218;28;20496;-49
2023/09/26 05:40:09;;;;;;;4.93;2.28;;;;;;;22.25;100.00;101703.13;5028199;28;20471;-49
2023/09/26 05:42:37;;;;;;;3.55;2.00;;;;;;;22.25;100.00;101714.47;5028271;28;20092;-50
2023/09/26 05:45:08;;;;;;;4.15;1.98;;;;;;;22.21;100.00;101714.66;5025635;28;20057;-50
2023/09/26 05:47:35;;;;;;;4.32;2.20;;;;;;;22.24;100.00;101715.72;5026851;28;20531;-48
2023/09/26 05:50:06;;;;;;;3.65;1.95;;;;;;;22.27;100.00;101720.44;5019485;28;20459;-50
2023/09/26 05:52:33;;;;;;;7.70;2.75;;;;;;;22.27;100.00;101718.38;5021845;28;20084;-51
2023/09/26 05:55:00;;;;;;;9.77;2.30;;;;;;;22.30;100.00;101728.81;5027088;28;20507;-49
2023/09/26 05:57:29;;;;;;;4.68;1.80;;;;;;;22.29;100.00;101729.25;5015534;28;20060;-49
2023/09/26 05:59:56;;;;;;;5.78;1.80;;;;;;;22.29;100.00;101721.53;5008110;28;20389;-50
2023/09/26 06:02:22;;;;;;;8.95;2.10;;;;;;;22.29;100.00;101724.38;5008580;28;20061;-49
2023/09/26 06:04:50;;;;;;;3.13;1.80;;;;;;;22.29;100.00;101720.75;5007206;28;20054;-50
2023/09/26 06:07:17;;;;;;;3.42;1.67;;;;;;;22.30;100.00;101720.31;5010560;28;20057;-50
2023/09/26 06:09:43;;;;;;;3.67;1.80;;;;;;;22.30;100.00;101719.50;5014763;28;20132;-49
2023/09/26 06:12:30;;;;;;;5.80;1.80;;;;;;;22.29;100.00;101721.53;5009576;28;20060;-48
2023/09/26 06:14:56;;;;;;;3.75;1.90;;;;;;;22.28;100.00;101719.19;5011283;28;20050;-50
2023/09/26 06:17:23;;;;;;;4.95;1.83;;;;;;;22.30;100.00;101725.19;5009272;28;20081;-48
2023/09/26 06:19:50;;;;;;;5.18;2.10;;;;;;;22.29;100.00;101724.38;5008542;28;20060;-51
2023/09/26 06:22:17;;;;;;;2.88;1.80;;;;;;;22.30;100.00;101713.84;5011794;28;20132;-49
2023/09/26 06:24:44;;;;;;;5.78;2.03;;;;;;;22.30;100.00;101711.00;5021813;28;20136;-49
2023/09/26 06:27:11;;;;;;;7.75;2.38;;;;;;;22.31;100.00;101704.09;5031413;28;20060;-50
2023/09/26 06:29:39;;;;;;;3.38;1.98;;;;;;;22.31;100.00;101704.09;5013364;28;20046;-49
2023/09/26 06:32:06;;;;;;;2.88;1.80;;;;;;;22.30;100.00;101700.47;5021167;28;20077;-49
2023/09/26 06:34:34;;;;;;;7.65;1.95;;;;;;;22.30;100.00;101706.16;5013169;28;20057;-49
2023/09/26 06:37:01;;;;;;;5.47;2.00;;;;;;;22.31;100.00;101704.09;5026733;28;20053;-51
2023/09/26 06:39:27;;;;;;;5.13;1.75;;;;;;;22.29;100.00;101698.09;5029186;28;20049;-50
2023/09/26 06:41:54;;;;;;;6.20;2.10;;;;;;;22.31;100.00;101707.69;5017517;28;20465;-51
2023/09/26 06:44:20;;;;;;;3.53;1.90;;;;;;;22.33;100.00;101696.69;5018874;28;20132;-52
2023/09/26 06:46:47;;;;;;;3.35;1.67;;;;;;;22.32;100.00;101703.63;5027891;28;20523;-51
2023/09/26 06:49:13;;;;;;;5.07;1.88;;;;;;;22.32;100.00;101708.50;5022529;28;20052;-48
2023/09/26 06:51:40;;;;;;;4.75;1.55;;;;;;;22.30;100.00;101708.97;5015285;28;20046;-51
2023/09/26 06:54:07;;;;;;;6.30;1.70;;;;;;;22.31;100.00;101699.22;5019968;28;20060;-53
2023/09/26 06:56:33;;;;;;;3.80;1.52;;;;;;;22.31;100.00;101699.22;5030863;28;20119;-52
2023/09/26 06:59:00;;;;;;;3.70;1.73;;;;;;;22.32;100.00;101703.63;5029123;28;20042;-47
2023/09/26 07:01:26;;;;;;;2.85;1.60;;;;;;;22.31;100.00;101693.53;5017855;28;20056;-51
2023/09/26 07:03:54;;;;;;;4.68;2.10;;;;;;;22.33;100.00;101701.56;5016173;28;20136;-48
2023/09/26 07:06:21;;;;;;;12.60;2.25;;;;;;;22.32;100.00;101692.31;5022132;28;20115;-52
2023/09/26 07:08:48;;;;;;;5.35;2.10;;;;;;;22.37;100.00;101705.03;5019439;28;20448;-52
2023/09/26 07:11:15;;;;;;;5.30;2.20;;;;;;;22.35;100.00;101708.34;5022651;28;20140;-49
2023/09/26 07:13:41;;;;;;;15.13;2.00;;;;;;;22.36;100.00;101711.94;5025904;28;20107;-52
2023/09/26 07:16:11;;;;;;;13.02;2.63;;;;;;;22.36;100.00;101703.44;5016150;28;20124;-50
2023/09/26 07:18:38;;;;;;;8.25;2.25;;;;;;;22.32;100.00;101709.28;5022519;28;20052;-51
2023/09/26 07:21:06;;;;;;;7.80;2.50;;;;;;;22.38;100.00;101709.44;5013715;28;20100;-52
2023/09/26 07:23:34;;;;;;;9.38;2.53;;;;;;;22.25;100.00;101703.13;5013653;28;20487;-52
2023/09/26 07:26:18;;;;;;;7.55;2.58;;;;;;;22.14;100.00;101704.41;5015691;28;20076;-54
2023/09/26 07:28:46;;;;;;;6.55;3.00;;;;;;;22.11;100.00;101705.34;5013130;28;20625;-51
2023/09/26 07:31:18;;;;;;;12.40;3.53;;;;;;;22.09;100.00;101699.41;5010259;28;20053;-53
2023/09/26 07:33:45;;;;;;;11.45;3.42;;;;;;;22.01;100.00;101694.53;5010679;28;20512;-52
2023/09/26 07:36:12;;;;;;;9.52;3.42;;;;;;;22.08;100.00;101699.88;5010083;28;20093;-53
2023/09/26 07:38:39;;;;;;;10.65;3.17;;;;;;;22.06;100.00;101700.34;5010677;28;20041;-52
2023/09/26 07:41:05;;;;;;;8.60;2.97;;;;;;;21.98;100.00;101698.31;5013801;28;20149;-55
2023/09/26 07:43:35;;;;;;;7.57;3.05;;;;;;;22.00;100.00;101705.06;5021164;28;20053;-54
2023/09/26 07:46:09;;;;;;;7.65;3.13;;;;;;;21.95;100.00;101705.72;5021876;28;20049;-50
2023/09/26 07:48:38;;;;;;;7.43;3.20;;;;;;;22.01;100.00;101703.78;5018942;28;20042;-51
2023/09/26 07:51:08;;;;;;;7.60;3.50;;;;;;;22.07;100.00;101701.09;5017239;28;20054;-53
2023/09/26 07:53:38;;;;;;;11.98;3.45;;;;;;;22.01;100.00;101703.78;5023383;28;20057;-53
2023/09/26 07:56:05;;;;;;;8.70;3.60;;;;;;;21.94;100.00;101701.28;5017660;28;20053;-51
2023/09/26 07:58:31;;;;;;;9.57;4.30;;;;;;;21.90;100.00;101692.16;5023710;28;20190;-50
2023/09/26 08:01:00;;;;;;;13.20;3.70;;;;;;;21.93;100.00;101696.09;5023311;28;20128;-52
2023/09/26 08:03:27;;;;;;;11.70;4.35;;;;;;;21.84;100.00;101696.88;5017942;28;20052;-53
2023/09/26 08:06:05;;;;;;;9.48;3.83;;;;;;;21.82;100.00;101698.63;5019902;28;20042;-51
2023/09/26 08:08:34;;;;;;;9.93;3.80;;;;;;;21.87;100.00;101701.59;5021355;28;20128;-52
2023/09/26 08:11:09;;;;;;;11.52;4.15;;;;;;;21.87;100.00;101710.09;5020984;28;20547;-52
2023/09/26 08:13:36;;;;;;;;;;;;;;;21.86;100.00;101700.03;5022127;28;20046;-51
2023/09/26 08:16:03;;;;;;;11.48;4.18;;;;;;;21.93;100.00;101705.38;5021325;28;19925;-53
2023/09/26 08:18:30;;;;;;;11.50;5.13;;;;;;;21.95;100.00;101697.22;5012159;28;20037;-52
2023/09/26 08:20:57;;;;;;;8.30;3.67;;;;;;;21.94;100.00;101709.78;5016032;28;20050;-51
2023/09/26 08:23:28;;;;;;;11.10;3.70;;;;;;;21.96;100.00;101703.63;5010029;28;20591;-52
2023/09/26 08:26:01;;;;;;;9.05;3.72;;;;;;;21.94;100.00;101709.78;5010891;28;20041;-51
2023/09/26 08:28:31;;;;;;;9.27;3.58;;;;;;;21.97;100.00;101703.16;5009057;28;20078;-51
2023/09/26 08:31:05;;;;;;;10.27;3.50;;;;;;;21.98;100.00;101699.06;5009165;28;20046;-50
2023/09/26 08:33:31;;;;;;;9.00;3.85;;;;;;;22.02;100.00;101696.09;5015148;28;20064;-52
2023/09/26 08:35:58;;;;;;;9.30;3.45;;;;;;;22.03;100.00;101703.31;5008802;28;20496;-52
2023/09/26 08:38:25;;;;;;;10.52;3.70;;;;;;;22.03;100.00;101698.44;5022122;28;20041;-51
2023/09/26 08:40:51;;;;;;;9.05;4.25;;;;;;;22.01;100.00;101697.38;5016605;28;20081;-50
2023/09/26 08:43:26;;;;;;;11.20;3.70;;;;;;;22.02;100.00;101699.72;5011746;28;20103;-51
2023/09/26 08:45:53;;;;;;;12.70;3.73;;;;;;;22.04;100.00;101705.69;5013165;28;20602;-52
2023/09/26 08:48:21;;;;;;;9.65;4.10;;;;;;;22.05;100.00;101695.91;5007534;28;20319;-55
2023/09/26 08:50:49;;;;;;;11.65;3.65;;;;;;;22.20;100.00;101696.06;5008851;28;20053;-49
2023/09/26 08:53:16;;;;;;;10.75;4.15;;;;;;;22.20;100.00;101695.28;5014623;28;20053;-51
2023/09/26 08:55:46;;;;;;;10.07;3.50;;;;;;;22.18;100.00;101704.25;5014724;28;20052;-50
2023/09/26 08:58:15;;;;;;;9.18;3.55;;;;;;;22.18;100.00;101698.59;5023167;28;20136;-53
2023/09/26 09:00:43;;;;;;;10.68;3.90;;;;;;;22.20;100.00;101693.22;5016339;28;20052;-50
2023/09/26 09:03:10;;;;;;;9.32;3.72;;;;;;;22.23;100.00;101691.47;5022620;28;20049;-49
2023/09/26 09:05:40;;;;;;;14.95;3.35;;;;;;;22.22;100.00;101678.59;5022133;28;20045;-52
2023/09/26 09:08:08;;;;;;;10.23;3.33;;;;;;;22.25;100.00;101681.28;5016841;28;20100;-51
2023/09/26 09:10:49;;;;;;;15.88;3.33;;;;;;;22.25;100.00;101683.31;5022397;28;20089;-51
2023/09/26 09:13:30;;;;;;;10.50;3.38;;;;;;;22.24;100.00;101676.84;5019652;28;20056;-50
2023/09/26 09:16:10;;;;;;;8.00;3.25;;;;;;;22.19;100.00;101677.50;5019796;28;20053;-51
2023/09/26 09:18:38;;;;;;;9.55;3.20;;;;;;;22.15;100.00;101665.56;5020321;28;20046;-50
2023/09/26 09:21:29;;;;;;;9.88;3.78;;;;;;;22.11;100.00;101662.09;5019166;28;20050;-50
2023/09/26 09:24:01;;;;;;;10.98;3.78;;;;;;;22.10;100.00;101658.47;5012074;28;20038;-51
2023/09/26 09:26:31;;;;;;;12.68;4.57;;;;;;;22.14;100.00;101653.44;5017716;28;20145;-50
2023/09/26 09:29:15;;;;;;;10.90;3.50;;;;;;;22.14;100.00;101653.44;5008358;28;20049;-52
2023/09/26 09:31:42;;;;;;;11.27;3.95;;;;;;;22.14;100.00;101650.59;5012281;28;20570;-50
2023/09/26 09:34:09;;;;;;;7.72;3.40;;;;;;;22.15;100.00;101649.31;5028085;28;20041;-51
2023/09/26 09:36:39;;;;;;;9.73;3.47;;;;;;;22.13;100.00;101646.19;5014901;28;20420;-50
2023/09/26 09:39:09;;;;;;;9.65;3.72;;;;;;;22.13;100.00;101646.19;5013356;28;20044;-50
2023/09/26 09:41:37;;;;;;;8.55;3.67;;;;;;;22.14;100.00;101642.09;5009189;28;20677;-51
2023/09/26 09:44:05;;;;;;;11.35;3.78;;;;;;;22.17;100.00;101639.59;5009996;28;20053;-49
2023/09/26 09:46:33;;;;;;;8.27;3.35;;;;;;;22.14;100.00;101630.78;5017293;28;20112;-48
2023/09/26 09:49:01;;;;;;;9.85;3.53;;;;;;;22.14;100.00;101633.59;5015017;28;20561;-51
2023/09/26 09:51:30;;;;;;;11.20;3.85;;;;;;;22.17;100.00;101634.69;5011970;28;20060;-49
2023/09/26 09:54:00;;;;;;;8.55;3.33;;;;;;;22.27;100.00;101632.66;5023347;28;20500;-50
2023/09/26 09:56:33;;;;;;;10.20;3.35;;;;;;;22.27;100.00;101619.25;5013512;28;20068;-52
2023/09/26 09:59:06;;;;;;;9.02;3.10;;;;;;;22.29;100.00;101627.28;5024945;28;20041;-50
2023/09/26 10:01:35;;;;;;;10.98;3.53;;;;;;;22.30;100.00;101626.81;5021198;28;20049;-50
2023/09/26 10:04:01;;;;;;;9.65;3.20;;;;;;;22.32;100.00;101629.19;5024252;28;20052;-48
2023/09/26 10:06:29;;;;;;;6.30;3.40;;;;;;;22.29;100.00;101615.94;5026126;28;20416;-49
2023/09/26 10:08:56;;;;;;;5.80;2.97;;;;;;;22.30;100.00;101624.00;5014372;28;20131;-51
2023/09/26 10:11:26;;;;;;;5.78;2.83;;;;;;;22.31;100.00;101619.13;5024527;28;20049;-49
2023/09/26 10:13:52;;;;;;;9.52;2.95;;;;;;;22.32;100.00;101617.84;5030631;28;20131;-51
2023/09/26 10:16:19;;;;;;;7.55;3.03;;;;;;;22.32;100.00;101623.50;5031219;28;20132;-50
2023/09/26 10:18:48;;;;;;;11.15;3.22;;;;;;;22.29;100.00;101618.78;5029728;28;20042;-49
2023/09/26 10:21:25;;;;;;;10.98;2.97;;;;;;;22.29;100.00;101613.09;5022253;28;20057;-49
2023/09/26 10:24:04;;;;;;;6.25;3.00;;;;;;;22.28;100.00;101614.38;5026393;28;20107;-49
2023/09/26 10:26:44;;;;;;;9.82;2.92;;;;;;;22.28;100.00;101603.03;5027823;28;20099;-50
2023/09/26 10:29:11;;;;;;;6.38;2.80;;;;;;;22.29;100.00;101598.94;5035049;28;20125;-51
2023/09/26 10:31:57;;;;;;;6.80;2.80;;;;;;;22.30;100.00;101609.81;5021062;28;20492;-50
2023/09/26 10:34:28;;;;;;;5.28;2.80;;;;;;;22.28;100.00;101601.00;5020326;28;20052;-49
2023/09/26 10:37:19;;;;;;;9.00;3.28;;;;;;;22.36;100.00;101604.28;5027733;28;20577;-50
2023/09/26 10:39:45;;;;;;;6.65;2.95;;;;;;;22.35;100.00;101602.72;5029976;28;20132;-51
2023/09/26 10:42:14;;;;;;;6.93;2.85;;;;;;;22.36;100.00;101596.59;5031524;28;20053;-49
2023/09/26 10:45:00;;;;;;;7.40;2.90;;;;;;;22.35;100.00;101589.38;5023607;28;20052;-50
2023/09/26 10:47:27;;;;;;;9.40;3.20;;;;;;;22.35;100.00;101583.69;5021636;28;20049;-51
2023/09/26 10:49:53;;;;;;;9.20;2.80;;;;;;;22.33;100.00;101583.38;5014572;28;20531;-49
2023/09/26 10:52:25;;;;;;;5.85;2.72;;;;;;;22.33;100.00;101589.03;5030979;28;20509;-50
2023/09/26 10:54:52;;;;;;;10.05;3.00;;;;;;;22.33;100.00;101591.88;5027091;28;20045;-49
2023/09/26 10:57:20;;;;;;;11.43;2.90;;;;;;;22.33;100.00;101591.09;5023506;28;20056;-49
2023/09/26 10:59:49;;;;;;;8.02;3.58;;;;;;;22.33;100.00;101603.22;5020030;28;20112;-50
2023/09/26 11:02:15;;;;;;;11.27;3.00;;;;;;;22.34;100.00;101593.44;5026585;28;20136;-52
2023/09/26 11:04:42;;;;;;;9.95;2.92;;;;;;;22.37;100.00;101591.72;5021242;28;20056;-51
2023/09/26 11:07:10;;;;;;;6.03;2.70;;;;;;;22.35;100.00;101592.19;5026749;28;20496;-49
2023/09/26 11:09:41;;;;;;;6.43;2.80;;;;;;;22.36;100.00;101590.13;5019903;28;20045;-49
2023/09/26 11:12:08;;;;;;;11.32;3.42;;;;;;;22.37;100.00;101588.88;5030725;28;20128;-48
2023/09/26 11:14:35;;;;;;;7.22;3.05;;;;;;;22.39;100.00;101592.00;5027705;28;20783;-48
2023/09/26 11:17:04;;;;;;;8.57;2.83;;;;;;;22.37;100.00;101588.88;5028918;28;20057;-52
2023/09/26 11:19:31;;;;;;;8.57;2.95;;;;;;;22.38;100.00;101590.44;5021271;28;20060;-50
2023/09/26 11:21:58;;;;;;;8.73;3.03;;;;;;;22.39;100.00;101589.97;5019590;28;20050;-49
2023/09/26 11:24:27;;;;;;;7.57;3.10;;;;;;;22.47;100.00;101588.34;5028155;28;20474;-51